Terminal Aerodrome Forecast
Issued by NWS New Orleans/Baton Rouge, LA

Home | Current Version | Previous Version | Text Only | Print | Product List | Glossary On
Versions: 1 2 3 4 5 6 7 8 9 10 11 12 13 14 15 16 17 18 19 20 21 22 23 24
000
FTUS44 KLIX 250500
TAFNEW
TAF
KNEW 250536Z 2506/2606 20010KT P6SM SCT020 BKN030
     FM251000 24008KT P6SM BKN010
     FM251400 28006KT P6SM BKN015
     FM251630 32007KT P6SM SCT030
     FM251900 25006KT P6SM SCT040
     FM260000 19006KT P6SM SCT250=

USA.gov is the U.S. government's official web portal to all federal, state and local government web resources and services.